NWS245 ULLI-UWKD
Flight info
| Callsign | NWS245 |
|---|---|
| Flight time | N/A |
| Altitude | 37000 |
| Route | SUGIN1B SUGIN T873 NIRGI T73 DESUD P164 ROKUR T784 ADMUL L94 UNORO T788 KOROM KOROM1R |
| Aircraft | A20N/M-SDE2E3FGHIRWXY/LB1 |
Departure
| Time | 2026-05-01 09:43 |
|---|---|
| Airport | Pulkovo Airport (ULLI) |
Arrival
| Time | N/A |
|---|---|
| Airport | Kazan International Airport (UWKD) |
| Time | Latitude | Longitude | Altitude | Speed | Heading |
|---|---|---|---|---|---|
| 2026-05-01 09:19 | 59.79856 | 30.26734 | 79 ft | 0 kts | 97° |
| 2026-05-01 09:22 | 59.79857 | 30.26717 | 85 ft | 2 kts | 96° |
| 2026-05-01 09:23 | 59.79859 | 30.26692 | 86 ft | 1 kts | 99° |
| 2026-05-01 09:23 | 59.79860 | 30.26678 | 85 ft | 0 kts | 99° |
| 2026-05-01 09:24 | 59.79860 | 30.26679 | 83 ft | 0 kts | 99° |
| 2026-05-01 09:30 | 59.79864 | 30.26626 | 84 ft | 2 kts | 98° |
| 2026-05-01 09:31 | 59.79867 | 30.26594 | 83 ft | 2 kts | 93° |
| 2026-05-01 09:31 | 59.79865 | 30.26562 | 83 ft | 2 kts | 41° |
| 2026-05-01 09:31 | 59.79847 | 30.26546 | 82 ft | 0 kts | 15° |
| 2026-05-01 09:35 | 59.79852 | 30.26549 | 83 ft | 4 kts | 15° |
| 2026-05-01 09:35 | 59.79903 | 30.26582 | 71 ft | 13 kts | 10° |
| 2026-05-01 09:36 | 59.80001 | 30.26639 | 77 ft | 16 kts | 8° |
| 2026-05-01 09:36 | 59.80096 | 30.26701 | 75 ft | 15 kts | 27° |
| 2026-05-01 09:36 | 59.80165 | 30.26731 | 74 ft | 0 kts | 30° |
| 2026-05-01 09:37 | 59.80174 | 30.26738 | 66 ft | 4 kts | 19° |
| 2026-05-01 09:38 | 59.80306 | 30.26820 | 73 ft | 13 kts | 11° |
| 2026-05-01 09:38 | 59.80378 | 30.26891 | 72 ft | 11 kts | 49° |
| 2026-05-01 09:38 | 59.80372 | 30.27034 | 65 ft | 11 kts | 103° |
| 2026-05-01 09:39 | 59.80328 | 30.27427 | 66 ft | 18 kts | 100° |
| 2026-05-01 09:39 | 59.80276 | 30.27632 | 68 ft | 12 kts | 115° |
| 2026-05-01 09:39 | 59.80249 | 30.27788 | 71 ft | 13 kts | 127° |
| 2026-05-01 09:40 | 59.80238 | 30.27963 | 73 ft | 15 kts | 96° |
| 2026-05-01 09:40 | 59.80180 | 30.28367 | 72 ft | 17 kts | 107° |
| 2026-05-01 09:40 | 59.80177 | 30.28574 | 67 ft | 14 kts | 36° |
| 2026-05-01 09:41 | 59.80225 | 30.28714 | 69 ft | 13 kts | 52° |
| 2026-05-01 09:41 | 59.80343 | 30.28773 | 72 ft | 12 kts | 297° |
| 2026-05-01 09:41 | 59.80348 | 30.28742 | 70 ft | 0 kts | 282° |
| 2026-05-01 09:42 | 59.80548 | 30.27389 | 65 ft | 132 kts | 287° |
| 2026-05-01 09:43 | 59.81250 | 30.22695 | 1033 ft | 192 kts | 286° |
| 2026-05-01 09:43 | 59.81617 | 30.20132 | 2198 ft | 193 kts | 285° |
| 2026-05-01 09:43 | 59.81958 | 30.17619 | 3535 ft | 182 kts | 285° |
| 2026-05-01 09:44 | 59.82547 | 30.13322 | 6220 ft | 137 kts | 289° |
| 2026-05-01 09:44 | 59.82790 | 30.11557 | 6941 ft | 150 kts | 291° |
| 2026-05-01 09:44 | 59.83145 | 30.09279 | 7144 ft | 191 kts | 292° |
| 2026-05-01 09:45 | 59.83597 | 30.06542 | 7355 ft | 223 kts | 291° |
| 2026-05-01 09:45 | 59.83968 | 30.00091 | 7563 ft | 252 kts | 254° |
| 2026-05-01 09:45 | 59.83019 | 29.97128 | 7579 ft | 261 kts | 224° |
| 2026-05-01 09:46 | 59.81426 | 29.95360 | 7581 ft | 266 kts | 199° |
| 2026-05-01 09:46 | 59.79628 | 29.94419 | 7632 ft | 269 kts | 194° |
| 2026-05-01 09:46 | 59.77792 | 29.93611 | 8093 ft | 272 kts | 194° |
| 2026-05-01 09:46 | 59.75951 | 29.92911 | 9054 ft | 275 kts | 182° |
| 2026-05-01 09:47 | 59.74066 | 29.93542 | 10032 ft | 279 kts | 154° |
| 2026-05-01 09:47 | 59.72505 | 29.95764 | 10854 ft | 278 kts | 125° |
| 2026-05-01 09:47 | 59.71602 | 29.99071 | 11709 ft | 274 kts | 101° |
| 2026-05-01 09:47 | 59.71145 | 30.02853 | 12173 ft | 293 kts | 94° |
| 2026-05-01 09:48 | 59.70779 | 30.06986 | 12567 ft | 317 kts | 94° |
| 2026-05-01 09:48 | 59.70332 | 30.11436 | 12910 ft | 342 kts | 97° |
| 2026-05-01 09:48 | 59.69859 | 30.16143 | 13512 ft | 352 kts | 93° |
| 2026-05-01 09:48 | 59.69609 | 30.20893 | 14378 ft | 352 kts | 87° |
| 2026-05-01 09:49 | 59.69474 | 30.25748 | 15181 ft | 355 kts | 86° |
| 2026-05-01 09:49 | 59.69360 | 30.30656 | 15985 ft | 358 kts | 85° |
| 2026-05-01 09:49 | 59.69150 | 30.35618 | 16778 ft | 366 kts | 91° |
| 2026-05-01 09:49 | 59.68690 | 30.40639 | 17546 ft | 373 kts | 94° |
| 2026-05-01 09:50 | 59.68166 | 30.45700 | 18315 ft | 378 kts | 95° |
| 2026-05-01 09:50 | 59.67616 | 30.50811 | 18993 ft | 382 kts | 95° |
| 2026-05-01 09:50 | 59.67053 | 30.55975 | 19664 ft | 386 kts | 95° |
| 2026-05-01 09:50 | 59.66484 | 30.61181 | 20318 ft | 390 kts | 95° |
| 2026-05-01 09:51 | 59.65918 | 30.66375 | 20951 ft | 394 kts | 95° |
| 2026-05-01 09:51 | 59.65345 | 30.71693 | 21588 ft | 397 kts | 94° |
| 2026-05-01 09:51 | 59.64846 | 30.77084 | 22209 ft | 399 kts | 91° |
| 2026-05-01 09:51 | 59.64401 | 30.82501 | 22838 ft | 403 kts | 91° |
| 2026-05-01 09:52 | 59.63973 | 30.87885 | 23455 ft | 406 kts | 90° |
| 2026-05-01 09:52 | 59.63533 | 30.93406 | 24015 ft | 410 kts | 91° |
| 2026-05-01 09:52 | 59.63097 | 30.98774 | 24539 ft | 413 kts | 91° |
| 2026-05-01 09:52 | 59.62633 | 31.04398 | 25067 ft | 416 kts | 91° |
| 2026-05-01 09:53 | 59.62160 | 31.10044 | 25585 ft | 419 kts | 91° |
| 2026-05-01 09:53 | 59.61677 | 31.15736 | 26096 ft | 421 kts | 91° |
| 2026-05-01 09:53 | 59.61194 | 31.21386 | 26605 ft | 424 kts | 91° |
| 2026-05-01 09:53 | 59.60699 | 31.27135 | 27079 ft | 427 kts | 91° |
| 2026-05-01 09:54 | 59.60197 | 31.32929 | 27556 ft | 430 kts | 91° |
| 2026-05-01 09:54 | 59.59689 | 31.38769 | 28028 ft | 432 kts | 91° |
| 2026-05-01 09:54 | 59.59175 | 31.44641 | 28483 ft | 435 kts | 91° |
| 2026-05-01 09:54 | 59.58656 | 31.50537 | 28931 ft | 438 kts | 90° |
| 2026-05-01 09:55 | 59.58132 | 31.56469 | 29367 ft | 440 kts | 90° |
| 2026-05-01 09:55 | 59.57601 | 31.62432 | 29778 ft | 443 kts | 90° |
| 2026-05-01 09:55 | 59.57064 | 31.68437 | 30203 ft | 445 kts | 90° |
| 2026-05-01 09:55 | 59.56529 | 31.74383 | 30561 ft | 448 kts | 90° |
| 2026-05-01 09:56 | 59.55983 | 31.80435 | 30939 ft | 450 kts | 91° |
| 2026-05-01 09:56 | 59.55432 | 31.86515 | 31314 ft | 451 kts | 91° |
| 2026-05-01 09:56 | 59.54877 | 31.92606 | 31764 ft | 451 kts | 91° |
| 2026-05-01 09:56 | 59.54319 | 31.98681 | 32248 ft | 450 kts | 91° |
| 2026-05-01 09:57 | 59.53668 | 32.04715 | 32713 ft | 456 kts | 98° |
| 2026-05-01 09:57 | 59.52453 | 32.10581 | 33169 ft | 469 kts | 110° |
| 2026-05-01 09:57 | 59.50620 | 32.15973 | 33626 ft | 480 kts | 123° |
| 2026-05-01 09:57 | 59.48281 | 32.20743 | 34089 ft | 486 kts | 129° |
| 2026-05-01 09:58 | 59.45869 | 32.25260 | 34485 ft | 485 kts | 129° |
| 2026-05-01 09:58 | 59.43438 | 32.29827 | 34838 ft | 483 kts | 129° |
| 2026-05-01 09:58 | 59.41028 | 32.34431 | 35174 ft | 482 kts | 129° |
| 2026-05-01 09:58 | 59.38641 | 32.39045 | 35494 ft | 482 kts | 128° |
| 2026-05-01 09:59 | 59.36267 | 32.43659 | 35810 ft | 481 kts | 128° |
| 2026-05-01 09:59 | 59.33891 | 32.48280 | 36131 ft | 480 kts | 128° |
| 2026-05-01 09:59 | 59.31526 | 32.52871 | 36435 ft | 480 kts | 129° |
| 2026-05-01 09:59 | 59.29149 | 32.57472 | 36733 ft | 479 kts | 129° |
| 2026-05-01 10:00 | 59.26807 | 32.61994 | 37007 ft | 479 kts | 129° |
| 2026-05-01 10:00 | 59.24408 | 32.66615 | 37176 ft | 478 kts | 129° |
| 2026-05-01 10:00 | 59.19696 | 32.75646 | 37201 ft | 476 kts | 129° |
| 2026-05-01 10:01 | 59.14942 | 32.84716 | 37202 ft | 475 kts | 129° |
| 2026-05-01 10:01 | 59.10209 | 32.93708 | 37204 ft | 475 kts | 129° |
| 2026-05-01 10:02 | 59.05512 | 33.02590 | 37206 ft | 475 kts | 129° |
| 2026-05-01 10:02 | 59.00775 | 33.11514 | 37200 ft | 475 kts | 129° |